createdAt,value
2022-11-05T00:02:24.946Z,8.55
2022-11-05T00:05:11.269Z,8.13
2022-11-05T00:07:59.236Z,8.25
2022-11-05T00:10:29.139Z,8.05
2022-11-05T00:13:16.073Z,6.82
2022-11-05T00:16:01.460Z,6.57
2022-11-05T00:18:29.058Z,6.47
2022-11-05T00:20:58.599Z,6.90
2022-11-05T00:23:43.671Z,6.50
2022-11-05T00:26:12.354Z,6.80
2022-11-05T00:28:43.570Z,6.68
2022-11-05T00:31:13.395Z,6.68
2022-11-05T00:33:42.516Z,6.25
2022-11-05T00:36:12.668Z,6.30
2022-11-05T00:38:40.274Z,6.10
2022-11-05T00:41:07.828Z,6.30
2022-11-05T00:43:55.461Z,5.60
2022-11-05T00:46:23.270Z,5.72
2022-11-05T00:49:08.361Z,5.35
2022-11-05T00:51:37.307Z,5.50
2022-11-05T00:54:06.144Z,5.18
2022-11-05T00:56:33.687Z,5.23
2022-11-05T00:59:01.214Z,4.80
2022-11-05T01:01:28.887Z,5.18
2022-11-05T01:03:56.553Z,4.90
2022-11-05T01:06:24.111Z,4.70
2022-11-05T01:08:53.019Z,5.00
2022-11-05T01:11:33.933Z,5.03
2022-11-05T01:14:02.159Z,4.82
2022-11-05T01:16:30.469Z,4.80
2022-11-05T01:18:58.131Z,4.53
2022-11-05T01:21:25.776Z,4.67
2022-11-05T01:23:55.358Z,4.78
2022-11-05T01:26:23.132Z,4.72
2022-11-05T01:28:52.154Z,4.70
2022-11-05T01:31:20.011Z,4.90
2022-11-05T01:33:47.770Z,5.17
2022-11-05T01:36:15.368Z,5.15
2022-11-05T01:38:43.001Z,5.20
2022-11-05T01:41:12.177Z,5.20
2022-11-05T01:43:47.965Z,4.72
2022-11-05T01:46:17.133Z,5.10
2022-11-05T01:48:44.857Z,5.57
2022-11-05T01:51:15.459Z,4.90
2022-11-05T01:53:45.682Z,5.00
2022-11-05T01:56:17.132Z,5.50
2022-11-05T01:58:49.007Z,5.35
2022-11-05T02:01:16.941Z,4.87
2022-11-05T02:03:46.028Z,5.30
2022-11-05T02:06:18.043Z,5.67
2022-11-05T02:08:56.866Z,5.50
2022-11-05T02:11:25.836Z,5.88
2022-11-05T02:13:54.820Z,6.07
2022-11-05T02:16:36.376Z,6.20
2022-11-05T02:19:22.886Z,6.13
2022-11-05T02:22:34.885Z,6.63
2022-11-05T02:25:20.390Z,6.80
2022-11-05T02:28:16.059Z,7.00
2022-11-05T02:30:49.451Z,7.00
2022-11-05T02:33:28.443Z,7.20
2022-11-05T02:36:21.588Z,7.30
2022-11-05T02:38:59.449Z,7.00
2022-11-05T02:41:36.516Z,7.22
2022-11-05T02:44:15.323Z,6.80
2022-11-05T02:46:52.412Z,6.90
2022-11-05T02:49:30.513Z,6.80
2022-11-05T02:51:59.751Z,7.03
2022-11-05T02:54:33.365Z,8.77
2022-11-05T02:57:03.649Z,7.38
2022-11-05T02:59:31.280Z,6.90
2022-11-05T03:02:01.866Z,7.03
2022-11-05T03:04:31.084Z,6.40
2022-11-05T03:07:28.604Z,6.50
2022-11-05T03:10:27.088Z,6.20
2022-11-05T03:13:08.416Z,6.35
2022-11-05T03:15:49.257Z,5.70
2022-11-05T03:18:26.370Z,5.80
2022-11-05T03:21:01.823Z,5.85
2022-11-05T03:23:43.804Z,6.22
2022-11-05T03:26:18.581Z,5.63
2022-11-05T03:28:51.551Z,5.45
2022-11-05T03:31:21.953Z,5.22
2022-11-05T03:33:54.017Z,5.38
2022-11-05T03:36:26.352Z,5.60
2022-11-05T03:38:57.032Z,5.43
2022-11-05T03:41:26.608Z,4.95
2022-11-05T03:43:58.795Z,5.30
2022-11-05T03:46:40.277Z,4.97
2022-11-05T03:49:15.345Z,4.88
2022-11-05T03:51:47.765Z,4.70
2022-11-05T03:54:15.637Z,4.50
2022-11-05T03:56:51.629Z,4.78
2022-11-05T03:59:20.974Z,4.80
2022-11-05T04:01:49.931Z,4.47
2022-11-05T04:04:19.026Z,4.13
2022-11-05T04:07:04.061Z,4.38
2022-11-05T04:09:49.336Z,4.10
2022-11-05T04:12:34.385Z,4.20
2022-11-05T04:15:01.950Z,4.00
2022-11-05T04:17:28.527Z,4.30
2022-11-05T04:20:15.092Z,3.92
2022-11-05T04:23:00.326Z,4.05
2022-11-05T04:25:28.097Z,4.20
2022-11-05T04:27:59.730Z,3.80
2022-11-05T04:30:27.146Z,4.00
2022-11-05T04:33:01.639Z,3.80
2022-11-05T04:35:32.584Z,3.50
2022-11-05T04:38:00.431Z,3.75
2022-11-05T04:40:28.146Z,3.10
2022-11-05T04:42:57.025Z,3.40
2022-11-05T04:45:25.779Z,3.53
2022-11-05T04:47:53.529Z,3.47
2022-11-05T04:50:21.580Z,2.90
2022-11-05T04:52:50.516Z,3.03
2022-11-05T04:55:18.317Z,2.95
2022-11-05T04:57:48.552Z,2.95
2022-11-05T05:00:17.373Z,3.15
2022-11-05T05:02:45.381Z,2.90
2022-11-05T05:05:13.649Z,3.03
2022-11-05T05:07:41.875Z,3.05
2022-11-05T05:10:11.622Z,3.00
2022-11-05T05:12:39.264Z,2.88
2022-11-05T05:15:07.807Z,2.78
2022-11-05T05:17:35.440Z,2.97
2022-11-05T05:20:20.658Z,3.20
2022-11-05T05:22:53.836Z,3.05
2022-11-05T05:25:23.456Z,2.93
2022-11-05T05:27:51.099Z,2.83
2022-11-05T05:30:19.076Z,2.70
2022-11-05T05:32:46.660Z,2.67
2022-11-05T05:35:14.230Z,2.97
2022-11-05T05:37:42.139Z,2.97
2022-11-05T05:40:10.918Z,3.20
2022-11-05T05:42:43.143Z,3.75
2022-11-05T05:45:12.510Z,3.70
2022-11-05T05:47:40.117Z,3.80
2022-11-05T05:50:08.035Z,4.18
2022-11-05T05:52:35.627Z,3.95
2022-11-05T05:55:03.195Z,4.10
2022-11-05T05:57:30.757Z,3.60
2022-11-05T06:00:01.735Z,3.80
2022-11-05T06:02:31.381Z,3.80
2022-11-05T06:04:59.041Z,3.65
2022-11-05T06:07:26.821Z,3.90
2022-11-05T06:09:54.559Z,4.72
2022-11-05T06:12:22.327Z,4.32
2022-11-05T06:14:50.295Z,4.03
2022-11-05T06:17:19.201Z,3.78
2022-11-05T06:19:46.959Z,3.90
2022-11-05T06:22:14.568Z,3.97
2022-11-05T06:24:42.143Z,3.67
2022-11-05T06:27:09.692Z,4.22
2022-11-05T06:29:37.465Z,4.32
2022-11-05T06:32:05.336Z,4.40
2022-11-05T06:34:34.260Z,4.30
2022-11-05T06:37:01.808Z,4.20
2022-11-05T06:39:29.524Z,4.43
2022-11-05T06:42:17.447Z,4.70
2022-11-05T06:44:44.651Z,4.40
2022-11-05T06:47:12.384Z,3.90
2022-11-05T06:49:41.311Z,4.10
2022-11-05T06:52:09.941Z,4.17
2022-11-05T06:54:37.536Z,3.80
2022-11-05T06:57:06.130Z,4.25
2022-11-05T06:59:34.361Z,4.10
2022-11-05T07:02:01.977Z,4.10
2022-11-05T07:04:29.631Z,4.10
2022-11-05T07:06:59.881Z,4.22
2022-11-05T07:09:27.456Z,4.30
2022-11-05T07:11:55.365Z,3.80
2022-11-05T07:14:23.126Z,4.20
2022-11-05T07:16:50.797Z,4.13
2022-11-05T07:19:18.377Z,4.03
2022-11-05T07:21:45.971Z,4.20
2022-11-05T07:24:15.439Z,4.20
2022-11-05T07:26:43.190Z,4.20
2022-11-05T07:29:11.548Z,3.90
2022-11-05T07:31:39.112Z,3.92
2022-11-05T07:34:07.131Z,4.15
2022-11-05T07:36:34.805Z,4.45
2022-11-05T07:39:02.420Z,4.47
2022-11-05T07:41:31.347Z,3.92
2022-11-05T07:43:58.888Z,4.22
2022-11-05T07:46:26.480Z,4.03
2022-11-05T07:48:54.051Z,4.27
2022-11-05T07:51:21.624Z,4.80
2022-11-05T07:53:49.380Z,3.97
2022-11-05T07:56:17.397Z,4.00
2022-11-05T07:58:46.427Z,4.28
2022-11-05T08:01:14.052Z,3.80
2022-11-05T08:03:41.768Z,3.80
2022-11-05T08:06:09.461Z,3.70
2022-11-05T08:08:37.026Z,3.55
2022-11-05T08:11:05.576Z,3.22
2022-11-05T08:13:33.557Z,3.38
2022-11-05T08:16:02.868Z,3.05
2022-11-05T08:18:32.468Z,3.53
2022-11-05T08:21:01.210Z,3.78
2022-11-05T08:23:29.691Z,3.30
2022-11-05T08:25:58.284Z,3.55
2022-11-05T08:28:27.205Z,3.70
2022-11-05T08:30:57.189Z,3.53
2022-11-05T08:33:27.459Z,3.38
2022-11-05T08:35:56.000Z,3.50
2022-11-05T08:38:23.850Z,3.60
2022-11-05T08:40:57.506Z,3.90
2022-11-05T08:43:25.592Z,3.63
2022-11-05T08:45:55.146Z,3.55
2022-11-05T08:48:22.911Z,3.28
2022-11-05T08:50:51.814Z,3.65
2022-11-05T08:53:19.393Z,3.90
2022-11-05T08:55:49.890Z,3.75
2022-11-05T08:58:18.004Z,3.65
2022-11-05T09:00:47.585Z,3.80
2022-11-05T09:03:15.984Z,3.90
2022-11-05T09:05:43.770Z,3.70
2022-11-05T09:08:14.129Z,3.38
2022-11-05T09:10:42.373Z,3.30
2022-11-05T09:13:17.852Z,3.30
2022-11-05T09:15:46.999Z,3.03
2022-11-05T09:18:16.358Z,3.20
2022-11-05T09:20:44.180Z,3.10
2022-11-05T09:23:15.085Z,3.08
2022-11-05T09:25:42.989Z,3.00
2022-11-05T09:28:16.466Z,3.10
2022-11-05T09:30:46.542Z,2.83
2022-11-05T09:33:15.895Z,2.83
2022-11-05T09:35:44.165Z,2.60
2022-11-05T09:38:14.175Z,3.05
2022-11-05T09:40:49.072Z,2.47
2022-11-05T09:43:20.178Z,2.30
2022-11-05T09:45:50.442Z,2.28
2022-11-05T09:48:22.630Z,2.10
2022-11-05T09:50:52.668Z,2.05
2022-11-05T09:53:24.248Z,2.28
2022-11-05T09:55:55.396Z,2.40
2022-11-05T09:58:35.258Z,2.25
2022-11-05T10:01:05.381Z,2.30
2022-11-05T10:03:39.565Z,2.10
2022-11-05T10:06:10.252Z,2.05
2022-11-05T10:08:43.858Z,2.33
2022-11-05T10:11:16.655Z,1.80
2022-11-05T10:13:48.225Z,2.00
2022-11-05T10:16:24.570Z,1.90
2022-11-05T10:18:56.124Z,1.80
2022-11-05T10:21:44.264Z,1.83
2022-11-05T10:24:15.987Z,1.75
2022-11-05T10:26:46.403Z,1.73
2022-11-05T10:29:17.074Z,1.80
2022-11-05T10:31:45.187Z,1.60
2022-11-05T10:34:17.880Z,2.00
2022-11-05T10:36:45.608Z,1.88
2022-11-05T10:39:17.371Z,1.87
2022-11-05T10:42:02.534Z,1.60
2022-11-05T10:44:35.940Z,1.60
2022-11-05T10:47:18.641Z,1.60
2022-11-05T10:49:55.826Z,1.80
2022-11-05T10:52:26.078Z,1.63
2022-11-05T10:55:00.485Z,1.50
2022-11-05T10:57:34.219Z,1.42
2022-11-05T11:00:25.933Z,1.40
2022-11-05T11:02:56.294Z,1.60
2022-11-05T11:05:28.283Z,1.90
2022-11-05T11:08:05.235Z,1.20
2022-11-05T11:10:38.505Z,1.20
2022-11-05T11:13:07.324Z,2.40
2022-11-05T11:15:37.092Z,1.17
2022-11-05T11:18:26.130Z,1.50
2022-11-05T11:20:53.863Z,1.52
2022-11-05T11:23:22.521Z,1.90
2022-11-05T11:25:58.475Z,1.80
2022-11-05T11:28:30.104Z,1.80
2022-11-05T11:31:07.384Z,2.17
2022-11-05T11:33:36.040Z,1.70
2022-11-05T11:36:05.083Z,1.80
2022-11-05T11:38:35.368Z,1.25
2022-11-05T11:41:24.832Z,1.20
2022-11-05T11:43:57.725Z,1.15
2022-11-05T11:46:25.760Z,1.17
2022-11-05T11:48:53.556Z,1.15
2022-11-05T11:51:31.787Z,1.10
2022-11-05T11:54:00.700Z,1.40
2022-11-05T11:56:32.471Z,1.15
2022-11-05T11:59:04.407Z,1.20
2022-11-05T12:01:45.029Z,1.30
2022-11-05T12:04:45.404Z,1.38
2022-11-05T12:07:26.338Z,1.30
2022-11-05T12:10:09.776Z,1.52
2022-11-05T12:12:45.838Z,1.67
2022-11-05T12:15:26.487Z,2.00
2022-11-05T12:17:59.034Z,1.50
2022-11-05T12:20:48.249Z,1.90
2022-11-05T12:23:40.194Z,1.40
2022-11-05T12:26:19.645Z,1.50
2022-11-05T12:29:24.460Z,1.42
2022-11-05T12:32:04.028Z,1.33
2022-11-05T12:34:47.757Z,1.50
2022-11-05T12:37:29.635Z,1.70
2022-11-05T12:40:08.661Z,1.88
2022-11-05T12:42:48.001Z,1.52
2022-11-05T12:45:30.736Z,1.98
2022-11-05T12:48:10.546Z,1.80
2022-11-05T12:50:45.151Z,1.50
2022-11-05T12:53:26.584Z,1.50
2022-11-05T12:55:55.576Z,1.70
2022-11-05T12:58:28.707Z,2.08
2022-11-05T13:01:01.552Z,2.60
2022-11-05T13:03:39.994Z,2.15
2022-11-05T13:06:12.169Z,2.20
2022-11-05T13:08:47.713Z,2.42
2022-11-05T13:11:22.339Z,2.20
2022-11-05T13:14:00.593Z,2.25
2022-11-05T13:16:34.970Z,2.22
2022-11-05T13:19:13.656Z,2.20
2022-11-05T13:21:43.741Z,2.38
2022-11-05T13:24:17.628Z,2.90
2022-11-05T13:26:52.021Z,2.50
2022-11-05T13:29:24.181Z,2.83
2022-11-05T13:31:58.433Z,2.90
2022-11-05T13:34:26.142Z,2.60
2022-11-05T13:37:15.416Z,3.15
2022-11-05T13:39:48.156Z,2.90
2022-11-05T13:42:43.595Z,3.00
2022-11-05T13:45:28.162Z,2.77
2022-11-05T13:48:12.551Z,2.90
2022-11-05T13:50:52.832Z,3.67
2022-11-05T13:53:42.636Z,3.30
2022-11-05T13:56:22.868Z,3.47
2022-11-05T13:59:36.115Z,3.53
2022-11-05T14:02:11.792Z,3.10
2022-11-05T14:04:45.989Z,3.20
2022-11-05T14:07:18.322Z,3.63
2022-11-05T14:09:48.485Z,4.00
2022-11-05T14:12:24.184Z,3.90
2022-11-05T14:14:59.067Z,4.60
2022-11-05T14:17:32.136Z,3.88
2022-11-05T14:20:27.841Z,3.73
2022-11-05T14:23:28.723Z,3.97
2022-11-05T14:25:58.203Z,4.15
2022-11-05T14:28:42.477Z,4.20
2022-11-05T14:31:54.299Z,4.03
2022-11-05T14:34:41.027Z,4.30
2022-11-05T14:37:36.923Z,4.68
2022-11-05T14:40:33.052Z,4.65
2022-11-05T14:43:02.564Z,4.78
2022-11-05T14:45:33.132Z,4.68
2022-11-05T14:48:02.943Z,4.80
2022-11-05T14:50:38.324Z,4.72
2022-11-05T14:53:27.690Z,5.88
2022-11-05T14:56:02.634Z,5.25
2022-11-05T14:58:36.517Z,6.35
2022-11-05T15:01:06.862Z,5.70
2022-11-05T15:03:47.071Z,5.57
2022-11-05T15:06:32.644Z,4.93
2022-11-05T15:09:27.873Z,5.50
2022-11-05T15:12:04.012Z,5.30
2022-11-05T15:14:35.283Z,5.25
2022-11-05T15:17:15.194Z,5.00
2022-11-05T15:19:44.119Z,5.25
2022-11-05T15:22:26.001Z,4.75
2022-11-05T15:24:56.121Z,4.40
2022-11-05T15:27:37.287Z,4.97
2022-11-05T15:30:14.745Z,4.43
2022-11-05T15:32:42.614Z,4.38
2022-11-05T15:35:26.755Z,4.50
2022-11-05T15:38:01.699Z,4.60
2022-11-05T15:40:34.279Z,4.30
2022-11-05T15:43:25.794Z,4.60
2022-11-05T15:46:06.528Z,4.15
2022-11-05T15:48:35.338Z,3.72
2022-11-05T15:51:03.523Z,3.90
2022-11-05T15:56:25.783Z,3.93
2022-11-05T15:58:56.371Z,4.20
2022-11-05T16:01:27.898Z,3.60
2022-11-05T16:03:57.848Z,4.30
2022-11-05T16:06:30.501Z,3.70
2022-11-05T16:08:58.224Z,3.70
2022-11-05T16:11:27.822Z,3.83
2022-11-05T16:14:14.918Z,3.80
2022-11-05T16:16:43.175Z,3.55
2022-11-05T16:19:40.158Z,3.83
2022-11-05T16:22:08.615Z,3.92
2022-11-05T16:24:36.196Z,3.90
2022-11-05T16:27:06.257Z,3.85
2022-11-05T16:29:35.619Z,3.92
2022-11-05T16:32:06.707Z,6.60
2022-11-05T16:34:38.920Z,16.97
2022-11-05T16:37:08.663Z,8.77
2022-11-05T16:39:36.166Z,4.50
2022-11-05T16:42:36.999Z,4.78
2022-11-05T16:45:05.156Z,4.60
2022-11-05T16:47:32.889Z,4.53
2022-11-05T16:50:00.579Z,4.60
2022-11-05T16:52:28.283Z,4.60
2022-11-05T16:54:56.841Z,4.50
2022-11-05T16:57:28.214Z,4.38
2022-11-05T16:59:56.878Z,4.00
2022-11-05T17:02:24.545Z,6.00
2022-11-05T17:04:52.392Z,4.57
2022-11-05T17:07:20.134Z,5.07
2022-11-05T17:09:47.759Z,5.38
2022-11-05T17:12:16.166Z,5.10
2022-11-05T17:14:45.093Z,7.85
2022-11-05T17:17:12.660Z,6.10
2022-11-05T17:19:42.395Z,6.32
2022-11-05T17:22:10.283Z,5.13
2022-11-05T17:24:38.804Z,4.80
2022-11-05T17:27:06.461Z,5.93
2022-11-05T17:29:34.250Z,5.05
2022-11-05T17:32:03.164Z,6.53
2022-11-05T17:34:30.829Z,11.95
2022-11-05T17:36:58.368Z,9.75
2022-11-05T17:39:31.251Z,17.63
2022-11-05T17:41:59.307Z,13.90
2022-11-05T17:44:26.895Z,16.07
2022-11-05T17:46:54.480Z,14.27
2022-11-05T17:49:23.528Z,8.13
2022-11-05T17:51:51.088Z,6.90
2022-11-05T17:54:18.752Z,7.78
2022-11-05T17:56:46.470Z,28.33
2022-11-05T17:59:14.055Z,14.20
2022-11-05T18:01:43.463Z,8.45
2022-11-05T18:04:11.566Z,16.02
2022-11-05T18:06:41.833Z,9.80
2022-11-05T18:09:11.428Z,10.60
2022-11-05T18:11:40.120Z,8.65
2022-11-05T18:14:08.418Z,10.63
2022-11-05T18:16:36.832Z,13.55
2022-11-05T18:19:04.621Z,29.67
2022-11-05T18:21:32.204Z,18.10
2022-11-05T18:24:03.472Z,18.13
2022-11-05T18:26:32.139Z,15.48
2022-11-05T18:29:01.127Z,5.38
2022-11-05T18:31:30.031Z,6.28
2022-11-05T18:33:59.310Z,6.60
2022-11-05T18:36:29.502Z,9.98
2022-11-05T18:38:58.575Z,7.80
2022-11-05T18:41:27.719Z,7.40
2022-11-05T18:43:59.597Z,9.35
2022-11-05T18:46:56.002Z,13.32
2022-11-05T18:49:14.807Z,8.02
2022-11-05T18:51:43.435Z,6.75
2022-11-05T18:54:11.117Z,7.00
2022-11-05T18:56:45.177Z,6.75
2022-11-05T18:59:35.207Z,6.80
2022-11-05T19:02:01.247Z,9.00
2022-11-05T19:04:30.467Z,9.43
2022-11-05T19:07:03.345Z,8.40
2022-11-05T19:09:32.394Z,10.25
2022-11-05T19:12:01.893Z,11.52
2022-11-05T19:14:30.638Z,10.70
2022-11-05T19:17:00.399Z,11.00
2022-11-05T19:19:28.584Z,7.78
2022-11-05T19:21:56.305Z,8.43
2022-11-05T19:24:24.108Z,10.77
2022-11-05T19:26:51.793Z,10.27
2022-11-05T19:29:20.916Z,10.90
2022-11-05T19:31:48.790Z,16.40
2022-11-05T19:34:16.548Z,21.38
2022-11-05T19:36:44.285Z,20.50
2022-11-05T19:39:14.408Z,9.85
2022-11-05T19:41:42.297Z,11.23
2022-11-05T19:44:10.049Z,17.08
2022-11-05T19:46:39.234Z,12.52
2022-11-05T19:49:06.962Z,12.23
2022-11-05T19:51:34.772Z,14.10
2022-11-05T19:54:04.091Z,10.68
2022-11-05T19:56:34.148Z,9.05
2022-11-05T19:59:03.799Z,8.48
2022-11-05T20:01:31.936Z,8.73
2022-11-05T20:04:02.374Z,8.30
2022-11-05T20:06:33.344Z,15.18
2022-11-05T20:11:50.753Z,33.03
2022-11-05T20:14:18.512Z,33.33
2022-11-05T20:16:47.628Z,35.78
2022-11-05T20:19:18.717Z,23.53
2022-11-05T20:21:46.604Z,30.65
2022-11-05T20:24:20.618Z,27.07
2022-11-05T20:26:52.124Z,24.85
2022-11-05T20:29:19.927Z,17.80
2022-11-05T20:31:47.848Z,20.63
2022-11-05T20:34:16.871Z,16.98
2022-11-05T20:36:44.618Z,46.17
2022-11-05T20:39:12.723Z,51.53
2022-11-05T20:41:40.460Z,36.83
2022-11-05T20:44:08.402Z,42.23
2022-11-05T20:46:36.209Z,49.80
2022-11-05T20:49:03.868Z,40.67
2022-11-05T20:51:32.973Z,28.38
2022-11-05T20:54:02.325Z,91.50
2022-11-05T20:56:31.366Z,37.15
2022-11-05T20:59:00.544Z,19.35
2022-11-05T21:01:30.359Z,45.08
2022-11-05T21:03:59.574Z,17.63
2022-11-05T21:06:27.570Z,27.40
2022-11-05T21:08:57.056Z,22.73
2022-11-05T21:11:24.877Z,33.05
2022-11-05T21:13:52.791Z,43.53
2022-11-05T21:16:20.914Z,58.10
2022-11-05T21:18:48.889Z,31.53
2022-11-05T21:21:19.328Z,28.83
2022-11-05T21:23:47.347Z,29.65
2022-11-05T21:26:18.603Z,22.65
2022-11-05T21:28:46.549Z,17.38
2022-11-05T21:31:14.266Z,14.23
2022-11-05T21:33:42.116Z,8.93
2022-11-05T21:36:11.578Z,8.65
2022-11-05T21:38:39.905Z,10.87
2022-11-05T21:41:08.277Z,11.07
2022-11-05T21:43:39.192Z,9.50
2022-11-05T21:46:06.797Z,7.50
2022-11-05T21:48:34.912Z,6.68
2022-11-05T21:51:19.930Z,6.43
2022-11-05T21:54:05.330Z,5.72
2022-11-05T21:56:50.860Z,6.43
2022-11-05T21:59:50.396Z,6.70
2022-11-05T22:02:21.526Z,6.27
2022-11-05T22:04:50.760Z,11.65
2022-11-05T22:07:20.556Z,8.98
2022-11-05T22:09:48.608Z,8.50
2022-11-05T22:12:16.546Z,8.15
2022-11-05T22:14:45.730Z,6.97
2022-11-05T22:17:14.485Z,6.60
2022-11-05T22:19:42.457Z,9.98
2022-11-05T22:22:10.337Z,7.40
2022-11-05T22:24:38.549Z,7.40
2022-11-05T22:27:08.584Z,5.65
2022-11-05T22:29:37.011Z,6.03
2022-11-05T22:32:06.856Z,5.07
2022-11-05T22:34:34.760Z,4.80
2022-11-05T22:37:03.459Z,4.57
2022-11-05T22:39:31.369Z,4.57
2022-11-05T22:42:03.107Z,4.50
2022-11-05T22:44:33.575Z,4.40
2022-11-05T22:47:01.144Z,4.20
2022-11-05T22:49:30.025Z,3.90
2022-11-05T22:51:57.892Z,3.80
2022-11-05T22:54:25.660Z,4.60
2022-11-05T22:56:53.739Z,4.72
2022-11-05T22:59:21.408Z,4.50
2022-11-05T23:01:49.526Z,4.90
2022-11-05T23:04:17.757Z,4.45
2022-11-05T23:07:04.102Z,4.60
2022-11-05T23:09:51.691Z,4.32
2022-11-05T23:12:23.038Z,3.80
2022-11-05T23:14:50.907Z,3.47
2022-11-05T23:17:36.201Z,3.35
2022-11-05T23:20:21.846Z,3.50
2022-11-05T23:23:08.481Z,3.53
2022-11-05T23:25:36.488Z,3.00
2022-11-05T23:28:09.724Z,3.22
2022-11-05T23:31:00.201Z,3.13
2022-11-05T23:33:26.851Z,3.40
2022-11-05T23:36:12.513Z,4.20
2022-11-05T23:38:41.448Z,3.90
2022-11-05T23:41:26.465Z,4.07
2022-11-05T23:44:11.884Z,4.50
2022-11-05T23:46:57.044Z,4.45
2022-11-05T23:49:24.780Z,4.00
2022-11-05T23:51:52.445Z,3.72
2022-11-05T23:54:21.863Z,3.97
2022-11-05T23:56:50.448Z,4.10
2022-11-05T23:59:17.999Z,4.07
